Time;durP1;ratioP1;P1;durP2;ratioP2;P2;SDS_P1;SDS_P2;PMS_P1;PMS_P2;Temp;Humidity;BMP_temperature;BMP_pressure;BME280_temperature;BME280_humidity;BME280_pressure;Samples;Min_cycle;Max_cycle;Signal;HPM_P1;HPM_P2
2022/07/09 00:01:45;;;;;;;4.60;3.50;;;;;;;;;;5095299;28;20533;-42
2022/07/09 00:04:12;;;;;;;4.80;3.53;;;;;;;;;;5095619;28;20586;-42
2022/07/09 00:06:39;;;;;;;6.13;3.72;;;;;;;;;;5095320;28;20633;-42
2022/07/09 00:09:06;;;;;;;3.67;3.22;;;;;;;;;;5095425;28;20213;-42
2022/07/09 00:11:33;;;;;;;7.35;4.78;;;;;;;;;;5094566;28;20210;-43
2022/07/09 00:14:00;;;;;;;6.35;3.55;;;;;;;;;;5095100;28;20207;-43
2022/07/09 00:16:27;;;;;;;6.35;3.10;;;;;;;;;;5094992;28;20199;-43
2022/07/09 00:18:54;;;;;;;4.78;3.25;;;;;;;;;;5095433;28;20364;-42
2022/07/09 00:21:21;;;;;;;8.50;3.35;;;;;;;;;;5095143;28;20317;-43
2022/07/09 00:23:48;;;;;;;8.05;3.42;;;;;;;;;;5095078;28;20202;-43
2022/07/09 00:26:15;;;;;;;4.35;3.30;;;;;;;;;;5095084;28;20207;-44
2022/07/09 00:28:42;;;;;;;3.70;2.90;;;;;;;;;;5094899;28;20214;-43
2022/07/09 00:31:09;;;;;;;3.95;3.20;;;;;;;;;;5094725;28;20210;-44
2022/07/09 00:33:37;;;;;;;5.72;2.72;;;;;;;;;;5095097;28;20273;-42
2022/07/09 00:36:04;;;;;;;7.90;2.88;;;;;;;;;;5095282;28;20224;-43
2022/07/09 00:38:31;;;;;;;3.67;2.78;;;;;;;;;;5094854;28;20648;-44
2022/07/09 00:40:58;;;;;;;4.85;2.75;;;;;;;;;;5095175;28;20234;-42
2022/07/09 00:43:25;;;;;;;2.72;2.53;;;;;;;;;;5094873;28;20202;-42
2022/07/09 00:45:52;;;;;;;6.28;3.17;;;;;;;;;;5094689;28;20199;-43
2022/07/09 00:48:19;;;;;;;5.03;2.35;;;;;;;;;;5094998;28;20566;-45
2022/07/09 00:50:47;;;;;;;3.40;1.92;;;;;;;;;;5095040;28;20202;-43
2022/07/09 00:53:15;;;;;;;6.47;2.30;;;;;;;;;;5094868;28;20203;-43
2022/07/09 00:55:44;;;;;;;6.43;2.50;;;;;;;;;;5094856;28;20272;-42
2022/07/09 00:58:12;;;;;;;2.72;2.20;;;;;;;;;;5094673;28;20640;-44
2022/07/09 01:00:40;;;;;;;6.45;1.98;;;;;;;;;;5094556;28;20222;-43
2022/07/09 01:03:07;;;;;;;4.80;2.05;;;;;;;;;;5093955;28;20210;-43
2022/07/09 01:05:37;;;;;;;2.22;1.80;;;;;;;;;;5094510;28;20206;-42
2022/07/09 01:08:05;;;;;;;11.07;2.55;;;;;;;;;;5094523;28;20206;-43
2022/07/09 01:10:34;;;;;;;6.45;2.40;;;;;;;;;;5094458;28;20225;-44
2022/07/09 01:13:02;;;;;;;5.63;2.30;;;;;;;;;;5095031;28;20199;-43
2022/07/09 01:15:30;;;;;;;5.10;2.20;;;;;;;;;;5094657;28;20199;-44
2022/07/09 01:17:58;;;;;;;7.43;2.25;;;;;;;;;;5094948;28;20199;-43
2022/07/09 01:20:26;;;;;;;3.20;2.22;;;;;;;;;;5094124;28;20223;-42
2022/07/09 01:22:53;;;;;;;4.15;2.38;;;;;;;;;;5097816;28;20283;-45
2022/07/09 01:25:31;;;;;;;9.48;2.38;;;;;;;;;;5098347;28;20664;-43
2022/07/09 01:27:58;;;;;;;7.78;2.35;;;;;;;;;;5098494;28;20209;-42
2022/07/09 01:30:27;;;;;;;5.22;2.20;;;;;;;;;;5098059;28;20264;-42
2022/07/09 01:32:54;;;;;;;3.38;2.15;;;;;;;;;;5099002;28;20286;-42
2022/07/09 01:35:21;;;;;;;5.03;2.30;;;;;;;;;;5098821;28;20206;-42
2022/07/09 01:37:48;;;;;;;5.40;2.50;;;;;;;;;;5097901;28;20203;-44
2022/07/09 01:40:15;;;;;;;2.78;2.17;;;;;;;;;;5098120;28;20606;-45
2022/07/09 01:42:42;;;;;;;5.10;2.00;;;;;;;;;;5097857;28;20233;-42
2022/07/09 01:45:10;;;;;;;3.70;2.17;;;;;;;;;;5098001;28;20210;-43
2022/07/09 01:47:37;;;;;;;3.33;2.13;;;;;;;;;;5097553;28;20207;-43
2022/07/09 01:50:05;;;;;;;5.57;2.92;;;;;;;;;;5097539;28;20298;-43
2022/07/09 01:52:32;;;;;;;4.55;2.33;;;;;;;;;;5097868;28;20229;-43
2022/07/09 01:54:59;;;;;;;6.32;2.50;;;;;;;;;;5097610;28;20202;-43
2022/07/09 01:57:26;;;;;;;5.35;3.58;;;;;;;;;;5097371;28;20203;-43
2022/07/09 01:59:54;;;;;;;5.50;2.72;;;;;;;;;;5097180;28;20554;-44
2022/07/09 02:02:21;;;;;;;4.78;3.22;;;;;;;;;;5096658;28;20203;-43
2022/07/09 02:04:48;;;;;;;6.20;3.45;;;;;;;;;;5097420;28;20217;-43
2022/07/09 02:07:15;;;;;;;7.07;3.30;;;;;;;;;;5097182;28;20640;-43
2022/07/09 02:09:42;;;;;;;6.55;3.50;;;;;;;;;;5097323;28;20309;-42
2022/07/09 02:12:09;;;;;;;9.50;3.45;;;;;;;;;;5097412;28;20207;-42
2022/07/09 02:14:36;;;;;;;6.47;3.60;;;;;;;;;;5097043;28;20210;-43
2022/07/09 02:17:04;;;;;;;5.20;3.15;;;;;;;;;;5097034;28;20598;-43
2022/07/09 02:19:31;;;;;;;11.15;3.53;;;;;;;;;;5096891;28;20660;-43
2022/07/09 02:21:58;;;;;;;9.82;3.60;;;;;;;;;;5096869;28;20223;-43
2022/07/09 02:24:24;;;;;;;5.88;3.50;;;;;;;;;;5097172;28;20206;-43
2022/07/09 02:26:51;;;;;;;7.28;3.22;;;;;;;;;;5096845;28;20285;-43
2022/07/09 02:29:19;;;;;;;10.98;3.78;;;;;;;;;;5096990;28;20578;-43
2022/07/09 02:31:46;;;;;;;8.77;3.08;;;;;;;;;;5097055;28;20198;-44
2022/07/09 02:34:13;;;;;;;7.40;3.45;;;;;;;;;;5095878;28;20702;-46
2022/07/09 02:36:40;;;;;;;4.20;2.67;;;;;;;;;;5096977;28;20207;-44
2022/07/09 02:39:07;;;;;;;5.00;2.90;;;;;;;;;;5096642;28;20702;-43
2022/07/09 02:41:33;;;;;;;7.90;2.92;;;;;;;;;;5096775;28;20203;-43
2022/07/09 02:44:00;;;;;;;4.47;2.78;;;;;;;;;;5096732;28;20209;-43
2022/07/09 02:46:27;;;;;;;8.57;3.13;;;;;;;;;;5096781;28;20637;-42
2022/07/09 02:48:54;;;;;;;6.65;3.05;;;;;;;;;;5096861;28;20203;-42
2022/07/09 02:51:22;;;;;;;6.38;2.92;;;;;;;;;;5096687;28;20538;-43
2022/07/09 02:53:48;;;;;;;9.45;3.00;;;;;;;;;;5096735;28;20199;-42
2022/07/09 02:56:15;;;;;;;5.22;2.50;;;;;;;;;;5097390;28;20209;-42
2022/07/09 02:58:42;;;;;;;4.40;3.05;;;;;;;;;;5096664;28;20211;-42
2022/07/09 03:01:09;;;;;;;4.15;2.63;;;;;;;;;;5096768;28;20252;-42
2022/07/09 03:03:36;;;;;;;8.57;3.17;;;;;;;;;;5096847;28;20504;-43
2022/07/09 03:06:04;;;;;;;9.35;2.70;;;;;;;;;;5096461;28;20275;-42
2022/07/09 03:08:31;;;;;;;6.82;2.80;;;;;;;;;;5096427;28;20232;-43
2022/07/09 03:10:58;;;;;;;4.80;2.58;;;;;;;;;;5095418;28;20197;-42
2022/07/09 03:13:25;;;;;;;9.55;2.40;;;;;;;;;;5096975;28;20202;-44
2022/07/09 03:15:52;;;;;;;4.50;2.60;;;;;;;;;;5096412;28;20202;-42
2022/07/09 03:18:19;;;;;;;4.75;2.47;;;;;;;;;;5096522;28;20209;-42
2022/07/09 03:20:47;;;;;;;7.28;2.67;;;;;;;;;;5096143;28;20258;-42
2022/07/09 03:23:14;;;;;;;6.25;2.83;;;;;;;;;;5096042;28;20187;-42
2022/07/09 03:25:41;;;;;;;9.18;3.38;;;;;;;;;;5096012;28;20255;-44
2022/07/09 03:28:09;;;;;;;7.28;3.85;;;;;;;;;;5096173;28;20206;-43
2022/07/09 03:30:36;;;;;;;5.88;3.50;;;;;;;;;;5096091;28;20202;-42
2022/07/09 03:33:03;;;;;;;5.90;2.97;;;;;;;;;;5095934;28;20237;-42
2022/07/09 03:35:30;;;;;;;5.07;3.00;;;;;;;;;;5095752;28;20207;-43
2022/07/09 03:37:57;;;;;;;5.80;2.85;;;;;;;;;;5095065;28;20203;-42
2022/07/09 03:40:24;;;;;;;6.00;2.80;;;;;;;;;;5095814;28;20223;-43
2022/07/09 03:42:51;;;;;;;3.35;2.22;;;;;;;;;;5096323;28;20206;-42
2022/07/09 03:45:18;;;;;;;6.85;2.53;;;;;;;;;;5095539;28;20705;-42
2022/07/09 03:47:45;;;;;;;9.88;2.83;;;;;;;;;;5095889;28;20207;-42
2022/07/09 03:50:12;;;;;;;10.15;2.78;;;;;;;;;;5096133;28;20621;-42
2022/07/09 03:52:39;;;;;;;7.70;2.28;;;;;;;;;;5095780;28;20283;-42
2022/07/09 03:55:06;;;;;;;3.80;2.53;;;;;;;;;;5095646;28;20206;-42
2022/07/09 03:57:33;;;;;;;6.68;2.50;;;;;;;;;;5096052;28;20194;-42
2022/07/09 04:00:01;;;;;;;6.03;2.50;;;;;;;;;;5095177;28;20679;-42
2022/07/09 04:02:38;;;;;;;4.85;2.30;;;;;;;;;;5095572;28;20206;-42
2022/07/09 04:05:07;;;;;;;5.80;2.47;;;;;;;;;;5095292;28;20205;-43
2022/07/09 04:07:34;;;;;;;6.88;2.45;;;;;;;;;;5096074;28;20195;-42
2022/07/09 04:10:02;;;;;;;6.38;2.38;;;;;;;;;;5095392;28;20236;-43
2022/07/09 04:12:29;;;;;;;7.30;2.40;;;;;;;;;;5095197;28;20272;-43
2022/07/09 04:14:55;;;;;;;4.03;2.30;;;;;;;;;;5095153;28;20199;-41
2022/07/09 04:17:23;;;;;;;6.18;2.60;;;;;;;;;;5095011;28;20229;-43
2022/07/09 04:19:50;;;;;;;5.38;2.30;;;;;;;;;;5094666;28;20241;-43
2022/07/09 04:22:17;;;;;;;3.85;2.20;;;;;;;;;;5094275;28;20230;-43
2022/07/09 04:24:44;;;;;;;8.75;2.70;;;;;;;;;;5094878;28;20530;-42
2022/07/09 04:27:12;;;;;;;7.40;2.60;;;;;;;;;;5095176;28;20251;-43
2022/07/09 04:29:39;;;;;;;7.53;2.95;;;;;;;;;;5095183;28;20251;-43
2022/07/09 04:32:06;;;;;;;5.72;2.45;;;;;;;;;;5093662;28;20272;-42
2022/07/09 04:34:33;;;;;;;6.47;2.30;;;;;;;;;;5094806;28;20194;-42
2022/07/09 04:37:00;;;;;;;5.20;2.65;;;;;;;;;;5094253;28;20521;-45
2022/07/09 04:39:27;;;;;;;10.30;2.83;;;;;;;;;;5094864;28;20203;-43
2022/07/09 04:41:55;;;;;;;6.05;2.67;;;;;;;;;;5095095;28;20640;-43
2022/07/09 04:44:21;;;;;;;5.03;2.50;;;;;;;;;;5094863;28;20225;-43
2022/07/09 04:46:49;;;;;;;4.22;2.42;;;;;;;;;;5094652;28;20194;-44
2022/07/09 04:49:15;;;;;;;5.80;2.35;;;;;;;;;;5094701;28;20202;-41
2022/07/09 04:51:42;;;;;;;5.95;2.47;;;;;;;;;;5095211;28;20195;-42
2022/07/09 04:54:10;;;;;;;9.57;2.63;;;;;;;;;;5094740;28;20202;-44
2022/07/09 04:56:37;;;;;;;5.95;2.40;;;;;;;;;;5095363;28;20198;-43
2022/07/09 04:59:03;;;;;;;8.68;2.70;;;;;;;;;;5098652;28;20530;-42
2022/07/09 05:01:31;;;;;;;9.75;2.42;;;;;;;;;;5099477;28;20311;-44
2022/07/09 05:03:58;;;;;;;5.18;2.22;;;;;;;;;;5096060;28;20210;-49
2022/07/09 05:06:25;;;;;;;4.78;2.40;;;;;;;;;;5092776;28;20195;-43
2022/07/09 05:08:53;;;;;;;8.15;2.60;;;;;;;;;;5098971;28;20305;-46
2022/07/09 05:11:20;;;;;;;10.25;2.30;;;;;;;;;;5098878;28;20198;-43
2022/07/09 05:13:47;;;;;;;10.82;2.05;;;;;;;;;;5098484;28;20259;-42
2022/07/09 05:16:14;;;;;;;7.95;2.35;;;;;;;;;;5098505;28;20202;-44
2022/07/09 05:18:41;;;;;;;7.57;1.92;;;;;;;;;;5098631;28;20233;-43
2022/07/09 05:21:08;;;;;;;6.45;1.77;;;;;;;;;;5098302;28;20252;-46
2022/07/09 05:23:36;;;;;;;6.50;1.85;;;;;;;;;;5098611;28;20203;-42
2022/07/09 05:26:03;;;;;;;4.88;1.98;;;;;;;;;;5098204;28;20620;-42
2022/07/09 05:28:30;;;;;;;6.82;1.88;;;;;;;;;;5098409;28;20198;-42
2022/07/09 05:30:58;;;;;;;4.85;1.70;;;;;;;;;;5098574;28;20252;-43
2022/07/09 05:33:45;;;;;;;10.30;1.75;;;;;;;;;;5098078;28;20195;-45
2022/07/09 05:36:17;;;;;;;4.53;1.73;;;;;;;;;;5098441;28;20543;-42
2022/07/09 05:38:45;;;;;;;9.73;1.80;;;;;;;;;;5098226;28;20238;-45
2022/07/09 05:41:14;;;;;;;4.93;1.63;;;;;;;;;;5098321;28;20230;-42
2022/07/09 05:43:42;;;;;;;10.45;2.17;;;;;;;;;;5098118;28;20217;-43
2022/07/09 05:46:08;;;;;;;6.05;1.85;;;;;;;;;;5098350;28;20211;-42
2022/07/09 05:48:36;;;;;;;5.80;1.80;;;;;;;;;;5097989;28;20213;-43
2022/07/09 05:51:04;;;;;;;6.85;1.70;;;;;;;;;;5097912;28;20694;-42
2022/07/09 05:53:31;;;;;;;4.03;1.80;;;;;;;;;;5097730;28;20705;-44
2022/07/09 05:55:59;;;;;;;5.22;1.73;;;;;;;;;;5097659;28;20636;-45
2022/07/09 05:58:26;;;;;;;6.22;1.52;;;;;;;;;;5097873;28;20206;-43
2022/07/09 06:00:53;;;;;;;4.47;1.45;;;;;;;;;;5098002;28;20251;-44
2022/07/09 06:03:20;;;;;;;5.38;1.80;;;;;;;;;;5097961;28;20203;-44
2022/07/09 06:05:47;;;;;;;9.73;1.20;;;;;;;;;;5097412;28;20201;-43
2022/07/09 06:08:14;;;;;;;3.88;1.45;;;;;;;;;;5096741;28;20249;-43
2022/07/09 06:10:40;;;;;;;6.15;1.40;;;;;;;;;;5097599;28;20206;-43
2022/07/09 06:13:08;;;;;;;5.78;1.52;;;;;;;;;;5097779;28;20198;-44
2022/07/09 06:15:35;;;;;;;6.78;1.90;;;;;;;;;;5097681;28;20252;-42
2022/07/09 06:18:02;;;;;;;3.60;1.20;;;;;;;;;;5097303;28;20202;-43
2022/07/09 06:20:29;;;;;;;6.57;1.52;;;;;;;;;;5096880;28;20661;-43
2022/07/09 06:22:56;;;;;;;4.18;1.05;;;;;;;;;;5098085;28;20203;-44
2022/07/09 06:25:23;;;;;;;5.55;1.30;;;;;;;;;;5091162;28;20656;-43
2022/07/09 06:27:50;;;;;;;4.90;1.20;;;;;;;;;;5096161;28;20260;-43
2022/07/09 06:30:17;;;;;;;3.05;1.08;;;;;;;;;;5095787;28;20627;-43
2022/07/09 06:32:44;;;;;;;6.80;1.20;;;;;;;;;;5096011;28;20238;-43
2022/07/09 06:35:11;;;;;;;3.42;0.80;;;;;;;;;;5095842;28;20268;-43
2022/07/09 06:37:38;;;;;;;6.32;0.88;;;;;;;;;;5096465;28;20287;-42
2022/07/09 06:40:05;;;;;;;2.35;0.80;;;;;;;;;;5095356;28;20234;-45
2022/07/09 06:42:33;;;;;;;6.13;1.10;;;;;;;;;;5096049;28;20237;-42
2022/07/09 06:45:16;;;;;;;4.35;1.13;;;;;;;;;;5095145;28;20222;-43
2022/07/09 06:47:43;;;;;;;5.20;0.90;;;;;;;;;;5096121;28;20223;-46
2022/07/09 06:50:10;;;;;;;1.83;0.82;;;;;;;;;;5096173;28;20263;-43
2022/07/09 06:52:37;;;;;;;1.73;0.55;;;;;;;;;;5095956;28;20328;-43
2022/07/09 06:55:05;;;;;;;4.70;0.75;;;;;;;;;;5095247;28;20257;-42
2022/07/09 06:57:32;;;;;;;3.88;0.82;;;;;;;;;;5095662;28;20684;-43
2022/07/09 06:59:59;;;;;;;2.92;0.60;;;;;;;;;;5095434;28;20242;-42
2022/07/09 07:02:26;;;;;;;3.40;0.90;;;;;;;;;;5095694;28;20257;-43
2022/07/09 07:04:53;;;;;;;3.08;0.98;;;;;;;;;;5095402;28;20235;-43
2022/07/09 07:07:20;;;;;;;4.03;0.68;;;;;;;;;;5095403;28;20668;-44
2022/07/09 07:09:47;;;;;;;3.50;0.65;;;;;;;;;;5094628;28;20230;-44
2022/07/09 07:12:14;;;;;;;2.95;0.47;;;;;;;;;;5095670;28;20234;-43
2022/07/09 07:14:41;;;;;;;3.63;0.63;;;;;;;;;;5095392;28;20317;-44
2022/07/09 07:17:09;;;;;;;2.63;0.40;;;;;;;;;;5095169;28;20233;-44
2022/07/09 07:19:36;;;;;;;2.83;0.70;;;;;;;;;;5095102;28;20226;-46
2022/07/09 07:22:03;;;;;;;1.70;0.50;;;;;;;;;;5094582;28;20230;-44
2022/07/09 07:24:30;;;;;;;2.78;0.68;;;;;;;;;;5094888;28;20230;-42
2022/07/09 07:26:57;;;;;;;2.20;0.73;;;;;;;;;;5095022;28;20320;-44
2022/07/09 07:29:24;;;;;;;2.42;0.60;;;;;;;;;;5095694;28;20233;-43
2022/07/09 07:31:52;;;;;;;3.97;0.80;;;;;;;;;;5095063;28;20215;-44
2022/07/09 07:34:22;;;;;;;3.35;0.90;;;;;;;;;;5095072;28;20222;-43
2022/07/09 07:36:51;;;;;;;4.68;0.65;;;;;;;;;;5094759;28;20326;-44
2022/07/09 07:39:21;;;;;;;1.42;0.55;;;;;;;;;;5093105;28;20230;-44
2022/07/09 07:41:49;;;;;;;2.95;0.60;;;;;;;;;;5093197;28;20240;-44
2022/07/09 07:44:16;;;;;;;2.90;0.90;;;;;;;;;;5094450;27;20218;-42
2022/07/09 07:46:43;;;;;;;4.70;0.50;;;;;;;;;;5094635;28;20234;-47
2022/07/09 07:49:10;;;;;;;2.92;0.55;;;;;;;;;;5093806;28;20292;-42
2022/07/09 07:51:37;;;;;;;2.38;0.50;;;;;;;;;;5094818;28;20667;-44
2022/07/09 07:54:05;;;;;;;2.15;0.60;;;;;;;;;;5094034;28;20572;-46
2022/07/09 07:56:33;;;;;;;3.65;0.73;;;;;;;;;;5095035;28;20291;-41
2022/07/09 07:59:00;;;;;;;1.75;0.50;;;;;;;;;;5094063;28;20264;-47
2022/07/09 08:01:27;;;;;;;1.80;0.60;;;;;;;;;;5090641;28;20564;-42
2022/07/09 08:03:54;;;;;;;1.00;0.32;;;;;;;;;;5089982;28;20310;-42
2022/07/09 08:06:24;;;;;;;1.35;0.50;;;;;;;;;;5074450;28;20249;-42
2022/07/09 08:08:51;;;;;;;3.03;0.85;;;;;;;;;;5072591;28;20242;-42
2022/07/09 08:11:18;;;;;;;4.78;0.47;;;;;;;;;;5086852;28;20224;-46
2022/07/09 08:13:45;;;;;;;2.58;0.63;;;;;;;;;;5092519;28;20710;-44
2022/07/09 08:16:12;;;;;;;1.48;0.40;;;;;;;;;;5090193;28;20221;-46
2022/07/09 08:18:39;;;;;;;4.55;0.50;;;;;;;;;;5090970;28;20214;-44
2022/07/09 08:21:08;;;;;;;2.25;0.40;;;;;;;;;;5090141;28;20252;-52
2022/07/09 08:23:51;;;;;;;1.52;0.55;;;;;;;;;;5088865;28;20218;-49
2022/07/09 08:26:25;;;;;;;2.55;0.43;;;;;;;;;;5091179;28;20407;-46
2022/07/09 08:28:56;;;;;;;1.27;0.52;;;;;;;;;;5091821;28;20292;-45
2022/07/09 08:31:23;;;;;;;9.80;0.68;;;;;;;;;;5090918;28;20661;-43
2022/07/09 08:33:51;;;;;;;1.70;0.60;;;;;;;;;;5093700;28;20317;-43
2022/07/09 08:36:18;;;;;;;5.25;0.90;;;;;;;;;;5093672;28;20253;-47
2022/07/09 08:38:46;;;;;;;1.65;0.50;;;;;;;;;;5091353;28;20721;-45
2022/07/09 08:41:16;;;;;;;2.03;0.68;;;;;;;;;;5092398;28;20684;-45
2022/07/09 08:43:52;;;;;;;2.88;0.70;;;;;;;;;;5090499;28;20233;-44
2022/07/09 08:46:19;;;;;;;1.63;0.55;;;;;;;;;;5091014;28;20735;-44
2022/07/09 08:48:47;;;;;;;3.15;0.55;;;;;;;;;;5093617;27;20600;-45
2022/07/09 08:51:14;;;;;;;1.20;0.50;;;;;;;;;;5092159;28;20225;-43
2022/07/09 08:53:43;;;;;;;2.05;0.57;;;;;;;;;;5091731;27;20409;-44
2022/07/09 08:56:11;;;;;;;4.38;0.63;;;;;;;;;;5092975;28;20206;-43
2022/07/09 08:58:38;;;;;;;4.15;0.70;;;;;;;;;;5089631;28;20256;-43
2022/07/09 09:01:06;;;;;;;3.83;0.80;;;;;;;;;;5088111;28;20264;-43
2022/07/09 09:03:33;;;;;;;1.40;0.57;;;;;;;;;;5093430;28;20514;-43
2022/07/09 09:06:02;;;;;;;2.58;0.80;;;;;;;;;;5093376;28;20203;-42
2022/07/09 09:08:34;;;;;;;1.33;0.60;;;;;;;;;;5093537;28;20281;-43
2022/07/09 09:11:19;;;;;;;4.13;1.10;;;;;;;;;;5091278;28;20187;-44
2022/07/09 09:13:48;;;;;;;3.10;0.80;;;;;;;;;;5092129;28;20248;-42
2022/07/09 09:16:17;;;;;;;1.95;0.65;;;;;;;;;;5091693;28;20206;-43
2022/07/09 09:18:46;;;;;;;1.75;0.68;;;;;;;;;;5092126;28;20199;-42
2022/07/09 09:21:14;;;;;;;2.10;0.90;;;;;;;;;;5092889;28;20230;-43
2022/07/09 09:23:49;;;;;;;1.55;0.75;;;;;;;;;;5093016;28;20248;-43
2022/07/09 09:26:17;;;;;;;3.28;0.60;;;;;;;;;;5090488;28;20247;-43
2022/07/09 09:28:46;;;;;;;2.45;0.70;;;;;;;;;;5093042;28;20194;-43
2022/07/09 09:31:35;;;;;;;1.92;0.77;;;;;;;;;;5092994;28;20205;-42
2022/07/09 09:34:08;;;;;;;2.65;0.80;;;;;;;;;;5090943;28;20188;-43
2022/07/09 09:36:40;;;;;;;3.08;0.57;;;;;;;;;;5093153;28;20245;-45
2022/07/09 09:39:20;;;;;;;1.45;0.70;;;;;;;;;;5092716;28;20245;-43
2022/07/09 09:42:01;;;;;;;7.30;0.70;;;;;;;;;;5091370;28;20225;-42
2022/07/09 09:44:36;;;;;;;3.03;0.80;;;;;;;;;;5094641;28;20195;-42
2022/07/09 09:47:04;;;;;;;5.57;0.75;;;;;;;;;;5094385;28;20186;-43
2022/07/09 09:49:32;;;;;;;5.03;0.80;;;;;;;;;;5096607;28;20210;-44
2022/07/09 09:52:09;;;;;;;6.03;0.80;;;;;;;;;;5094048;28;20195;-42
2022/07/09 09:54:39;;;;;;;2.75;0.60;;;;;;;;;;5096262;28;20202;-47
2022/07/09 09:57:08;;;;;;;3.80;0.73;;;;;;;;;;5094665;28;20622;-45
2022/07/09 09:59:37;;;;;;;2.10;0.70;;;;;;;;;;5091843;28;20194;-44
2022/07/09 10:02:06;;;;;;;1.92;0.70;;;;;;;;;;5096307;28;20218;-43
2022/07/09 10:04:35;;;;;;;4.57;1.00;;;;;;;;;;5096767;28;20202;-45
2022/07/09 10:07:04;;;;;;;3.30;0.70;;;;;;;;;;5097504;28;20297;-44
2022/07/09 10:09:31;;;;;;;2.05;0.77;;;;;;;;;;5097355;28;20210;-42
2022/07/09 10:11:58;;;;;;;1.58;0.75;;;;;;;;;;5097288;28;20272;-43
2022/07/09 10:14:28;;;;;;;0.95;0.60;;;;;;;;;;5097344;28;20195;-42
2022/07/09 10:16:55;;;;;;;1.88;0.80;;;;;;;;;;5090023;28;20237;-42
2022/07/09 10:19:27;;;;;;;2.30;0.75;;;;;;;;;;5096358;28;20219;-43
2022/07/09 10:21:55;;;;;;;5.43;1.00;;;;;;;;;;5094967;28;20238;-44
2022/07/09 10:24:33;;;;;;;2.42;0.60;;;;;;;;;;5096487;28;20238;-44
2022/07/09 10:27:04;;;;;;;2.75;0.70;;;;;;;;;;5095979;28;20244;-44
2022/07/09 10:29:33;;;;;;;2.65;0.90;;;;;;;;;;5096435;28;20230;-43
2022/07/09 10:32:01;;;;;;;2.03;1.00;;;;;;;;;;5095573;28;20226;-46
2022/07/09 10:34:34;;;;;;;1.65;0.80;;;;;;;;;;5096209;28;20241;-42
2022/07/09 10:37:03;;;;;;;5.07;0.90;;;;;;;;;;5096193;28;20287;-43
2022/07/09 10:39:30;;;;;;;2.78;0.90;;;;;;;;;;5096694;28;20287;-42
2022/07/09 10:42:05;;;;;;;2.35;0.98;;;;;;;;;;5085957;28;20700;-43
2022/07/09 10:44:40;;;;;;;8.98;1.13;;;;;;;;;;5085002;28;20224;-43
2022/07/09 10:47:07;;;;;;;1.98;1.02;;;;;;;;;;5091935;28;20202;-44
2022/07/09 10:49:38;;;;;;;3.75;0.82;;;;;;;;;;5092235;28;20679;-42
2022/07/09 10:52:06;;;;;;;5.03;1.20;;;;;;;;;;5095796;28;20199;-43
2022/07/09 10:54:33;;;;;;;2.92;1.20;;;;;;;;;;5095769;28;20194;-42
2022/07/09 10:57:00;;;;;;;1.95;1.05;;;;;;;;;;5096693;28;20211;-41
2022/07/09 10:59:27;;;;;;;3.38;1.08;;;;;;;;;;5096800;28;20201;-42
2022/07/09 11:01:55;;;;;;;5.88;1.20;;;;;;;;;;5090417;28;20226;-43
2022/07/09 11:04:27;;;;;;;5.20;1.40;;;;;;;;;;5092032;28;20234;-42
2022/07/09 11:06:58;;;;;;;13.35;6.20;;;;;;;;;;5096608;28;20198;-43
2022/07/09 11:09:28;;;;;;;6.40;2.10;;;;;;;;;;5096350;28;20198;-42
2022/07/09 11:11:54;;;;;;;5.97;1.23;;;;;;;;;;5096287;28;20595;-42
2022/07/09 11:14:22;;;;;;;4.95;1.10;;;;;;;;;;5096166;28;20211;-43
2022/07/09 11:16:56;;;;;;;3.60;1.33;;;;;;;;;;5096431;28;20251;-42
2022/07/09 11:19:23;;;;;;;6.30;1.40;;;;;;;;;;5096606;28;20202;-42
2022/07/09 11:22:00;;;;;;;3.97;1.05;;;;;;;;;;5096347;28;20230;-43
2022/07/09 11:24:29;;;;;;;4.10;1.30;;;;;;;;;;5096386;28;20201;-43
2022/07/09 11:27:01;;;;;;;6.20;1.00;;;;;;;;;;5095658;28;20267;-43
2022/07/09 11:29:28;;;;;;;6.45;1.40;;;;;;;;;;5095983;28;20207;-42
2022/07/09 11:31:55;;;;;;;3.03;0.80;;;;;;;;;;5096274;28;20237;-43
2022/07/09 11:34:22;;;;;;;3.70;1.10;;;;;;;;;;5096050;28;20206;-42
2022/07/09 11:36:53;;;;;;;7.93;0.85;;;;;;;;;;5095831;28;20203;-42
2022/07/09 11:39:29;;;;;;;2.55;0.98;;;;;;;;;;5095710;28;20195;-42
2022/07/09 11:41:58;;;;;;;4.55;1.02;;;;;;;;;;5095843;28;20198;-43
2022/07/09 11:44:33;;;;;;;6.55;1.30;;;;;;;;;;5095926;28;20213;-42
2022/07/09 11:47:03;;;;;;;3.53;1.20;;;;;;;;;;5096127;28;20534;-42
2022/07/09 11:49:41;;;;;;;2.10;0.82;;;;;;;;;;5095742;28;20226;-42
2022/07/09 11:52:21;;;;;;;6.90;0.70;;;;;;;;;;5095930;28;20210;-42
2022/07/09 11:55:06;;;;;;;1.80;0.90;;;;;;;;;;5095928;28;20273;-42
2022/07/09 11:57:35;;;;;;;1.73;0.88;;;;;;;;;;5095843;28;20183;-42
2022/07/09 12:00:04;;;;;;;2.08;0.75;;;;;;;;;;5089874;28;20636;-45
2022/07/09 12:02:37;;;;;;;2.05;1.00;;;;;;;;;;5094597;28;20246;-43
2022/07/09 12:05:06;;;;;;;3.58;0.93;;;;;;;;;;5081819;28;20234;-43
2022/07/09 12:07:34;;;;;;;1.10;0.85;;;;;;;;;;5093742;28;20214;-42
2022/07/09 12:10:09;;;;;;;1.38;1.10;;;;;;;;;;5093989;28;20218;-43
2022/07/09 12:12:37;;;;;;;2.35;0.80;;;;;;;;;;5082654;28;20217;-42
2022/07/09 12:15:05;;;;;;;6.28;0.80;;;;;;;;;;5093440;28;20618;-42
2022/07/09 12:17:36;;;;;;;2.83;0.70;;;;;;;;;;5094673;28;20218;-42
2022/07/09 12:20:07;;;;;;;0.98;0.70;;;;;;;;;;5094339;28;20223;-43
2022/07/09 12:22:34;;;;;;;2.05;0.75;;;;;;;;;;5094097;28;20316;-42
2022/07/09 12:25:01;;;;;;;0.93;0.60;;;;;;;;;;5093998;28;20318;-42
2022/07/09 12:27:28;;;;;;;0.65;0.55;;;;;;;;;;5094417;28;20235;-42
2022/07/09 12:29:55;;;;;;;0.95;0.70;;;;;;;;;;5093814;28;20231;-42
2022/07/09 12:32:22;;;;;;;1.10;0.70;;;;;;;;;;5094449;28;20222;-42
2022/07/09 12:34:49;;;;;;;1.50;0.88;;;;;;;;;;5093975;28;20226;-43
2022/07/09 12:37:16;;;;;;;1.58;0.70;;;;;;;;;;5094055;28;20222;-42
2022/07/09 12:39:43;;;;;;;1.35;0.88;;;;;;;;;;5093897;28;20230;-45
2022/07/09 12:42:18;;;;;;;1.90;0.95;;;;;;;;;;5094213;28;20311;-44
2022/07/09 12:44:45;;;;;;;0.95;0.80;;;;;;;;;;5093490;28;20292;-43
2022/07/09 12:47:12;;;;;;;1.10;0.90;;;;;;;;;;5094048;28;20231;-42
2022/07/09 12:49:40;;;;;;;1.48;0.80;;;;;;;;;;5094051;28;20226;-45
2022/07/09 12:52:07;;;;;;;1.63;0.98;;;;;;;;;;5093772;28;20280;-43
2022/07/09 12:54:34;;;;;;;6.65;0.90;;;;;;;;;;5094432;28;20215;-43
2022/07/09 12:57:01;;;;;;;2.20;0.90;;;;;;;;;;5093775;28;20218;-42
2022/07/09 12:59:35;;;;;;;1.00;0.75;;;;;;;;;;5093718;28;20219;-43
2022/07/09 13:02:04;;;;;;;1.60;0.82;;;;;;;;;;5093554;28;20238;-42
2022/07/09 13:04:31;;;;;;;1.27;1.00;;;;;;;;;;5093303;28;20227;-43
2022/07/09 13:06:58;;;;;;;2.60;0.98;;;;;;;;;;5093375;28;20230;-43
2022/07/09 13:09:25;;;;;;;1.17;0.80;;;;;;;;;;5094228;28;20231;-43
2022/07/09 13:11:52;;;;;;;1.05;0.73;;;;;;;;;;5093802;28;20226;-43
2022/07/09 13:14:19;;;;;;;1.20;0.90;;;;;;;;;;5093291;28;20310;-43
2022/07/09 13:16:46;;;;;;;1.48;0.95;;;;;;;;;;5094018;28;20219;-44
2022/07/09 13:19:33;;;;;;;1.35;0.93;;;;;;;;;;5098235;28;20241;-42
2022/07/09 13:22:01;;;;;;;1.73;0.98;;;;;;;;;;5098826;28;20234;-42
2022/07/09 13:24:27;;;;;;;4.80;0.90;;;;;;;;;;5099063;28;20199;-42
2022/07/09 13:26:54;;;;;;;1.60;0.95;;;;;;;;;;5098695;28;20515;-43
2022/07/09 13:29:22;;;;;;;1.77;0.80;;;;;;;;;;5098516;28;20203;-43
2022/07/09 13:31:49;;;;;;;1.65;0.77;;;;;;;;;;5098541;28;20331;-42
2022/07/09 13:34:16;;;;;;;1.90;0.80;;;;;;;;;;5098414;28;20279;-42
2022/07/09 13:36:43;;;;;;;2.45;0.80;;;;;;;;;;5098401;28;20194;-43
2022/07/09 13:39:10;;;;;;;1.35;0.80;;;;;;;;;;5098727;28;20199;-43
2022/07/09 13:41:37;;;;;;;1.90;0.75;;;;;;;;;;5098300;28;20203;-43
2022/07/09 13:44:05;;;;;;;3.25;0.60;;;;;;;;;;5098207;28;20229;-43
2022/07/09 13:46:32;;;;;;;1.67;0.52;;;;;;;;;;5098211;28;20199;-43
2022/07/09 13:48:59;;;;;;;0.68;0.60;;;;;;;;;;5097949;28;20644;-42
2022/07/09 13:51:26;;;;;;;1.95;0.77;;;;;;;;;;5096941;28;20536;-43
2022/07/09 13:53:54;;;;;;;0.98;0.57;;;;;;;;;;5091267;28;20218;-42
2022/07/09 13:56:21;;;;;;;1.45;0.57;;;;;;;;;;5097142;28;20238;-43
2022/07/09 13:58:48;;;;;;;0.52;0.52;;;;;;;;;;5096632;28;20234;-43
2022/07/09 14:01:15;;;;;;;1.42;0.80;;;;;;;;;;5097022;28;20234;-43
2022/07/09 14:03:42;;;;;;;1.23;0.80;;;;;;;;;;5096048;28;20238;-43
2022/07/09 14:06:10;;;;;;;1.30;0.77;;;;;;;;;;5096827;28;20218;-43
2022/07/09 14:08:57;;;;;;;2.80;0.50;;;;;;;;;;5096029;28;20234;-43
2022/07/09 14:11:25;;;;;;;0.55;0.50;;;;;;;;;;5096905;28;20219;-44
2022/07/09 14:13:53;;;;;;;0.60;0.57;;;;;;;;;;5096650;28;20230;-44
2022/07/09 14:16:20;;;;;;;0.75;0.60;;;;;;;;;;5096681;28;20233;-43
2022/07/09 14:18:47;;;;;;;4.55;0.68;;;;;;;;;;5096374;28;20284;-43
2022/07/09 14:21:14;;;;;;;1.20;0.60;;;;;;;;;;5096667;28;20298;-42
2022/07/09 14:23:42;;;;;;;3.08;0.60;;;;;;;;;;5094597;28;20246;-43
2022/07/09 14:26:09;;;;;;;1.85;0.68;;;;;;;;;;5096725;28;20222;-42
2022/07/09 14:28:36;;;;;;;3.55;0.60;;;;;;;;;;5096279;28;20223;-45
2022/07/09 14:31:03;;;;;;;1.92;0.50;;;;;;;;;;5095587;28;20227;-43
2022/07/09 14:33:30;;;;;;;3.75;0.70;;;;;;;;;;5096383;28;20214;-43
2022/07/09 14:35:57;;;;;;;3.92;1.00;;;;;;;;;;5096612;28;20313;-43
2022/07/09 14:38:24;;;;;;;2.28;0.70;;;;;;;;;;5095405;28;20238;-44
2022/07/09 14:40:51;;;;;;;2.35;0.60;;;;;;;;;;5096169;28;20241;-43
2022/07/09 14:43:18;;;;;;;1.67;0.60;;;;;;;;;;5096330;28;20234;-43
2022/07/09 14:45:45;;;;;;;1.60;0.68;;;;;;;;;;5095785;28;20645;-43
2022/07/09 14:48:13;;;;;;;2.38;0.55;;;;;;;;;;5096383;28;20214;-43
2022/07/09 14:50:41;;;;;;;1.85;0.60;;;;;;;;;;5096683;28;20198;-43